sensor_id;sensor_type;location;lat;lon;timestamp;pressure;altitude;pressure_sealevel;temperature;humidity
54918;BME280;40818;50.562;7.454;2023-09-30T00:06:23;98616.91;;;13.00;100.00
54918;BME280;40818;50.562;7.454;2023-09-30T00:16:26;98612.25;;;12.91;100.00
54918;BME280;40818;50.562;7.454;2023-09-30T00:26:33;98622.38;;;12.81;100.00
54918;BME280;40818;50.562;7.454;2023-09-30T00:36:36;98630.00;;;12.70;100.00
54918;BME280;40818;50.562;7.454;2023-09-30T00:46:43;98631.56;;;12.58;100.00
54918;BME280;40818;50.562;7.454;2023-09-30T00:56:48;98645.25;;;12.47;100.00
54918;BME280;40818;50.562;7.454;2023-09-30T01:06:56;98636.88;;;12.56;100.00
54918;BME280;40818;50.562;7.454;2023-09-30T01:17:01;98632.13;;;12.63;100.00
54918;BME280;40818;50.562;7.454;2023-09-30T01:27:10;98636.03;;;12.70;100.00
54918;BME280;40818;50.562;7.454;2023-09-30T01:37:17;98638.84;;;12.81;100.00
54918;BME280;40818;50.562;7.454;2023-09-30T01:47:23;98661.75;;;12.91;100.00
54918;BME280;40818;50.562;7.454;2023-09-30T01:57:27;98652.06;;;12.93;100.00
54918;BME280;40818;50.562;7.454;2023-09-30T02:07:33;98650.03;;;12.98;100.00
54918;BME280;40818;50.562;7.454;2023-09-30T02:17:37;98661.22;;;13.00;100.00
54918;BME280;40818;50.562;7.454;2023-09-30T02:27:44;98656.34;;;12.79;100.00
54918;BME280;40818;50.562;7.454;2023-09-30T02:37:48;98650.00;;;12.69;100.00
54918;BME280;40818;50.562;7.454;2023-09-30T02:47:54;98647.38;;;12.55;100.00
54918;BME280;40818;50.562;7.454;2023-09-30T02:58:01;98667.25;;;12.41;100.00
54918;BME280;40818;50.562;7.454;2023-09-30T03:08:08;98667.13;;;12.28;100.00
54918;BME280;40818;50.562;7.454;2023-09-30T03:18:11;98678.41;;;12.13;100.00
54918;BME280;40818;50.562;7.454;2023-09-30T03:28:18;98671.22;;;11.86;100.00
54918;BME280;40818;50.562;7.454;2023-09-30T03:38:22;98662.91;;;11.64;100.00
54918;BME280;40818;50.562;7.454;2023-09-30T03:48:29;98676.25;;;11.57;100.00
54918;BME280;40818;50.562;7.454;2023-09-30T03:58:32;98676.69;;;11.50;100.00
54918;BME280;40818;50.562;7.454;2023-09-30T04:08:41;98686.88;;;11.21;100.00
54918;BME280;40818;50.562;7.454;2023-09-30T04:18:45;98663.28;;;11.08;100.00
54918;BME280;40818;50.562;7.454;2023-09-30T04:28:53;98672.38;;;10.99;100.00
54918;BME280;40818;50.562;7.454;2023-09-30T04:38:57;98663.66;;;10.49;100.00
54918;BME280;40818;50.562;7.454;2023-09-30T04:49:04;98676.81;;;10.46;100.00
54918;BME280;40818;50.562;7.454;2023-09-30T04:59:08;98659.53;;;10.45;100.00
54918;BME280;40818;50.562;7.454;2023-09-30T05:09:15;98674.94;;;10.31;100.00
54918;BME280;40818;50.562;7.454;2023-09-30T05:19:18;98703.41;;;10.32;100.00
54918;BME280;40818;50.562;7.454;2023-09-30T05:29:25;98719.06;;;10.31;100.00
54918;BME280;40818;50.562;7.454;2023-09-30T05:39:29;98695.06;;;10.25;100.00
54918;BME280;40818;50.562;7.454;2023-09-30T05:49:35;98710.09;;;10.01;100.00
54918;BME280;40818;50.562;7.454;2023-09-30T05:59:39;98712.50;;;10.23;100.00
54918;BME280;40818;50.562;7.454;2023-09-30T06:09:46;98730.09;;;10.71;100.00
54918;BME280;40818;50.562;7.454;2023-09-30T06:19:50;98714.19;;;10.95;100.00
54918;BME280;40818;50.562;7.454;2023-09-30T06:29:57;98744.66;;;11.26;100.00
54918;BME280;40818;50.562;7.454;2023-09-30T06:40:01;98729.03;;;11.59;100.00
54918;BME280;40818;50.562;7.454;2023-09-30T06:50:14;98733.59;;;11.05;100.00
54918;BME280;40818;50.562;7.454;2023-09-30T07:00:19;98758.50;;;10.39;100.00
54918;BME280;40818;50.562;7.454;2023-09-30T07:10:25;98755.31;;;10.15;100.00
54918;BME280;40818;50.562;7.454;2023-09-30T07:20:30;98767.38;;;10.52;100.00
54918;BME280;40818;50.562;7.454;2023-09-30T07:30:36;98758.00;;;11.02;100.00
54918;BME280;40818;50.562;7.454;2023-09-30T07:40:40;98767.97;;;11.27;100.00
54918;BME280;40818;50.562;7.454;2023-09-30T07:50:46;98792.81;;;11.49;100.00
54918;BME280;40818;50.562;7.454;2023-09-30T08:00:51;98803.22;;;11.83;100.00
54918;BME280;40818;50.562;7.454;2023-09-30T08:10:58;98818.78;;;12.16;100.00
54918;BME280;40818;50.562;7.454;2023-09-30T08:21:02;98806.34;;;12.53;100.00
54918;BME280;40818;50.562;7.454;2023-09-30T08:31:09;98804.59;;;12.84;100.00
54918;BME280;40818;50.562;7.454;2023-09-30T08:41:17;98838.69;;;13.26;100.00
54918;BME280;40818;50.562;7.454;2023-09-30T08:51:31;98842.09;;;13.57;100.00
54918;BME280;40818;50.562;7.454;2023-09-30T09:01:35;98840.41;;;13.85;100.00
54918;BME280;40818;50.562;7.454;2023-09-30T09:11:41;98842.53;;;14.07;100.00
54918;BME280;40818;50.562;7.454;2023-09-30T09:21:55;98841.03;;;14.31;100.00
54918;BME280;40818;50.562;7.454;2023-09-30T09:32:12;98818.28;;;14.33;100.00
54918;BME280;40818;50.562;7.454;2023-09-30T09:42:24;98815.34;;;14.38;100.00
54918;BME280;40818;50.562;7.454;2023-09-30T09:52:31;98815.63;;;14.61;100.00
54918;BME280;40818;50.562;7.454;2023-09-30T10:02:39;98808.06;;;14.71;100.00
54918;BME280;40818;50.562;7.454;2023-09-30T10:12:45;98814.81;;;14.33;100.00
54918;BME280;40818;50.562;7.454;2023-09-30T10:23:19;98816.50;;;14.61;100.00
54918;BME280;40818;50.562;7.454;2023-09-30T10:33:26;98808.91;;;15.50;100.00
54918;BME280;40818;50.562;7.454;2023-09-30T10:43:30;98822.47;;;16.44;100.00
54918;BME280;40818;50.562;7.454;2023-09-30T10:53:41;98818.91;;;17.04;100.00
54918;BME280;40818;50.562;7.454;2023-09-30T11:03:46;98810.66;;;17.67;99.69
54918;BME280;40818;50.562;7.454;2023-09-30T11:13:54;98815.94;;;18.01;95.28
54918;BME280;40818;50.562;7.454;2023-09-30T11:24:00;98828.78;;;18.27;83.80
54918;BME280;40818;50.562;7.454;2023-09-30T11:34:07;98825.97;;;17.96;89.86
54918;BME280;40818;50.562;7.454;2023-09-30T11:44:12;98800.91;;;19.64;81.24
54918;BME280;40818;50.562;7.454;2023-09-30T11:54:20;98765.72;;;20.16;77.32
54918;BME280;40818;50.562;7.454;2023-09-30T12:04:25;98773.38;;;22.56;66.80
54918;BME280;40818;50.562;7.454;2023-09-30T12:14:31;98776.13;;;23.95;58.81
54918;BME280;40818;50.562;7.454;2023-09-30T12:24:35;98777.59;;;24.90;56.95
54918;BME280;40818;50.562;7.454;2023-09-30T12:34:42;98775.31;;;25.99;49.03
54918;BME280;40818;50.562;7.454;2023-09-30T12:44:47;98746.50;;;24.49;49.10
54918;BME280;40818;50.562;7.454;2023-09-30T12:54:53;98730.72;;;21.11;55.84
54918;BME280;40818;50.562;7.454;2023-09-30T13:04:57;98727.16;;;22.14;52.34
54918;BME280;40818;50.562;7.454;2023-09-30T13:15:04;98726.38;;;21.86;54.91
54918;BME280;40818;50.562;7.454;2023-09-30T13:25:09;98725.50;;;19.73;57.18
54918;BME280;40818;50.562;7.454;2023-09-30T13:35:16;98718.78;;;18.55;60.35
54918;BME280;40818;50.562;7.454;2023-09-30T13:45:20;98709.56;;;17.96;63.38
54918;BME280;40818;50.562;7.454;2023-09-30T13:55:26;98720.22;;;18.27;62.75
54918;BME280;40818;50.562;7.454;2023-09-30T14:05:30;98702.22;;;18.43;64.36
54918;BME280;40818;50.562;7.454;2023-09-30T14:15:36;98689.69;;;18.68;62.89
54918;BME280;40818;50.562;7.454;2023-09-30T14:25:40;98669.25;;;18.81;62.19
54918;BME280;40818;50.562;7.454;2023-09-30T14:35:47;98668.56;;;18.79;62.64
54918;BME280;40818;50.562;7.454;2023-09-30T14:45:51;98673.16;;;18.87;65.05
54918;BME280;40818;50.562;7.454;2023-09-30T14:55:57;98676.06;;;18.84;66.49
54918;BME280;40818;50.562;7.454;2023-09-30T15:06:01;98668.31;;;18.61;68.03
54918;BME280;40818;50.562;7.454;2023-09-30T15:16:14;98671.44;;;18.55;69.14
54918;BME280;40818;50.562;7.454;2023-09-30T15:26:18;98665.84;;;18.27;71.89
54918;BME280;40818;50.562;7.454;2023-09-30T15:36:25;98645.53;;;18.08;72.64
54918;BME280;40818;50.562;7.454;2023-09-30T15:46:29;98643.53;;;17.89;72.88
54918;BME280;40818;50.562;7.454;2023-09-30T15:56:35;98636.69;;;17.54;74.99
54918;BME280;40818;50.562;7.454;2023-09-30T16:06:41;98646.75;;;17.26;76.65
54918;BME280;40818;50.562;7.454;2023-09-30T16:16:47;98658.31;;;16.89;79.10
54918;BME280;40818;50.562;7.454;2023-09-30T16:26:51;98648.13;;;16.62;81.49
54918;BME280;40818;50.562;7.454;2023-09-30T16:36:57;98642.88;;;16.51;82.27
54918;BME280;40818;50.562;7.454;2023-09-30T16:47:01;98656.72;;;16.29;83.47
54918;BME280;40818;50.562;7.454;2023-09-30T16:57:07;98657.25;;;16.10;84.02
54918;BME280;40818;50.562;7.454;2023-09-30T17:07:11;98668.06;;;15.68;85.39
54918;BME280;40818;50.562;7.454;2023-09-30T17:17:17;98660.84;;;15.34;87.24
54918;BME280;40818;50.562;7.454;2023-09-30T17:27:21;98653.66;;;15.12;89.21
54918;BME280;40818;50.562;7.454;2023-09-30T17:37:28;98657.66;;;14.92;90.14
54918;BME280;40818;50.562;7.454;2023-09-30T17:47:33;98674.53;;;14.61;92.59
54918;BME280;40818;50.562;7.454;2023-09-30T17:57:39;98669.63;;;14.43;94.28
54918;BME280;40818;50.562;7.454;2023-09-30T18:07:43;98660.47;;;14.23;95.49
54918;BME280;40818;50.562;7.454;2023-09-30T18:17:50;98668.13;;;13.99;97.82
54918;BME280;40818;50.562;7.454;2023-09-30T18:27:54;98668.56;;;13.78;98.71
54918;BME280;40818;50.562;7.454;2023-09-30T18:38:01;98681.84;;;13.61;98.34
54918;BME280;40818;50.562;7.454;2023-09-30T18:48:05;98684.47;;;13.46;99.07
54918;BME280;40818;50.562;7.454;2023-09-30T18:58:14;98666.22;;;13.32;99.23
54918;BME280;40818;50.562;7.454;2023-09-30T19:08:19;98659.97;;;13.20;99.72
54918;BME280;40818;50.562;7.454;2023-09-30T19:18:26;98657.09;;;12.96;100.00
54918;BME280;40818;50.562;7.454;2023-09-30T19:28:31;98659.34;;;12.88;100.00
54918;BME280;40818;50.562;7.454;2023-09-30T19:38:38;98668.56;;;12.79;100.00
54918;BME280;40818;50.562;7.454;2023-09-30T19:48:42;98678.59;;;12.71;100.00
54918;BME280;40818;50.562;7.454;2023-09-30T19:58:49;98681.72;;;12.61;100.00
54918;BME280;40818;50.562;7.454;2023-09-30T20:08:52;98672.84;;;12.50;100.00
54918;BME280;40818;50.562;7.454;2023-09-30T20:18:59;98646.50;;;12.40;100.00
54918;BME280;40818;50.562;7.454;2023-09-30T20:29:03;98653.28;;;12.28;100.00
54918;BME280;40818;50.562;7.454;2023-09-30T20:39:10;98658.25;;;12.17;100.00
54918;BME280;40818;50.562;7.454;2023-09-30T20:49:15;98653.41;;;12.10;100.00
54918;BME280;40818;50.562;7.454;2023-09-30T20:59:21;98678.09;;;12.03;100.00
54918;BME280;40818;50.562;7.454;2023-09-30T21:09:25;98673.56;;;12.07;100.00
54918;BME280;40818;50.562;7.454;2023-09-30T21:19:31;98660.25;;;11.97;100.00
54918;BME280;40818;50.562;7.454;2023-09-30T21:29:35;98666.00;;;11.86;100.00
54918;BME280;40818;50.562;7.454;2023-09-30T21:39:42;98655.91;;;11.80;100.00
54918;BME280;40818;50.562;7.454;2023-09-30T21:49:46;98659.28;;;11.66;100.00
54918;BME280;40818;50.562;7.454;2023-09-30T21:59:52;98663.06;;;11.60;100.00
54918;BME280;40818;50.562;7.454;2023-09-30T22:09:56;98659.72;;;11.58;100.00
54918;BME280;40818;50.562;7.454;2023-09-30T22:20:03;98666.69;;;11.58;100.00
54918;BME280;40818;50.562;7.454;2023-09-30T22:30:08;98662.50;;;11.55;100.00
54918;BME280;40818;50.562;7.454;2023-09-30T22:40:15;98670.44;;;11.52;100.00
54918;BME280;40818;50.562;7.454;2023-09-30T22:50:20;98669.78;;;11.49;100.00
54918;BME280;40818;50.562;7.454;2023-09-30T23:00:26;98671.06;;;11.41;100.00
54918;BME280;40818;50.562;7.454;2023-09-30T23:10:31;98668.69;;;11.37;100.00
54918;BME280;40818;50.562;7.454;2023-09-30T23:20:37;98667.34;;;11.30;100.00
54918;BME280;40818;50.562;7.454;2023-09-30T23:30:41;98664.06;;;11.26;100.00
54918;BME280;40818;50.562;7.454;2023-09-30T23:40:47;98667.84;;;11.20;100.00
54918;BME280;40818;50.562;7.454;2023-09-30T23:50:52;98665.03;;;11.07;100.00
